Campbell Hall, New York
Current Conditions -  °F | °C
As of 12:54 AM on Tuesday 27 Jan 2015 (Local Time) from KMGJ Reporting Station
Light Snow Light Snow  
Wind Chill:   Ceiling: 4200
Heat Index: 21°   Visibility: 5mi
Dew Point: 16°   Wind: 15mph
Humidity: 81%   Direction: 30°NNE
Pressure: 29.74"   Gusts: NA
Location:  41.46°N, 74.26°W
Report Text: KMGJ 270554Z AUTO 03013KT 5SM -SN FEW017 OVC042 M06/M09 A2974 RMK AO2 PK WND 02031/0511 SNB09E19B50 SLP075 P0000 60000 T10611089 11061 21067 56019 TSNO
Loading
Personal Weather Stations






























Interactive Weather Map New forecast layout! Learn more

10-Day Weather Forecast

Advertisements
Track Severe Weather on mobile